sensor_id;sensor_type;location;lat;lon;timestamp;pressure;altitude;pressure_sealevel;temperature
60949;BMP280;46729;43.010;24.320;2022-07-23T00:00:09;97292.25;;;18.86
60949;BMP280;46729;43.010;24.320;2022-07-23T00:02:35;97282.19;;;19.04
60949;BMP280;46729;43.010;24.320;2022-07-23T00:05:01;97284.03;;;18.88
60949;BMP280;46729;43.010;24.320;2022-07-23T00:07:27;97303.84;;;18.80
60949;BMP280;46729;43.010;24.320;2022-07-23T00:09:52;97290.31;;;18.82
60949;BMP280;46729;43.010;24.320;2022-07-23T00:12:18;97296.44;;;18.71
60949;BMP280;46729;43.010;24.320;2022-07-23T00:14:44;97289.38;;;18.76
60949;BMP280;46729;43.010;24.320;2022-07-23T00:17:10;97287.56;;;18.93
60949;BMP280;46729;43.010;24.320;2022-07-23T00:19:35;97280.69;;;19.08
60949;BMP280;46729;43.010;24.320;2022-07-23T00:22:01;97290.38;;;18.87
60949;BMP280;46729;43.010;24.320;2022-07-23T00:24:26;97288.69;;;18.69
60949;BMP280;46729;43.010;24.320;2022-07-23T00:26:52;97287.22;;;18.62
60949;BMP280;46729;43.010;24.320;2022-07-23T00:29:18;97292.06;;;18.65
60949;BMP280;46729;43.010;24.320;2022-07-23T00:31:43;97291.16;;;18.60
60949;BMP280;46729;43.010;24.320;2022-07-23T00:34:09;97293.34;;;18.74
60949;BMP280;46729;43.010;24.320;2022-07-23T00:36:34;97292.13;;;18.92
60949;BMP280;46729;43.010;24.320;2022-07-23T00:39:00;97275.88;;;18.67
60949;BMP280;46729;43.010;24.320;2022-07-23T00:41:26;97286.69;;;18.49
60949;BMP280;46729;43.010;24.320;2022-07-23T00:43:51;97274.28;;;18.54
60949;BMP280;46729;43.010;24.320;2022-07-23T00:46:20;97275.38;;;18.69
60949;BMP280;46729;43.010;24.320;2022-07-23T00:48:46;97264.88;;;18.74
60949;BMP280;46729;43.010;24.320;2022-07-23T00:51:12;97272.59;;;18.76
60949;BMP280;46729;43.010;24.320;2022-07-23T00:53:39;97272.53;;;18.60
60949;BMP280;46729;43.010;24.320;2022-07-23T00:56:05;97269.56;;;18.45
60949;BMP280;46729;43.010;24.320;2022-07-23T00:58:32;97276.28;;;18.48
60949;BMP280;46729;43.010;24.320;2022-07-23T01:00:59;97272.53;;;18.60
60949;BMP280;46729;43.010;24.320;2022-07-23T01:03:25;97270.09;;;18.58
60949;BMP280;46729;43.010;24.320;2022-07-23T01:05:51;97271.44;;;18.45
60949;BMP280;46729;43.010;24.320;2022-07-23T01:08:16;97264.63;;;18.37
60949;BMP280;46729;43.010;24.320;2022-07-23T01:10:42;97266.50;;;18.26
60949;BMP280;46729;43.010;24.320;2022-07-23T01:13:09;97267.06;;;18.28
60949;BMP280;46729;43.010;24.320;2022-07-23T01:15:36;97270.56;;;18.28
60949;BMP280;46729;43.010;24.320;2022-07-23T01:18:04;97272.84;;;18.25
60949;BMP280;46729;43.010;24.320;2022-07-23T01:20:30;97260.25;;;18.31
60949;BMP280;46729;43.010;24.320;2022-07-23T01:22:56;97255.84;;;18.37
60949;BMP280;46729;43.010;24.320;2022-07-23T01:25:22;97266.09;;;18.45
60949;BMP280;46729;43.010;24.320;2022-07-23T01:27:49;97259.19;;;18.32
60949;BMP280;46729;43.010;24.320;2022-07-23T01:30:14;97260.94;;;18.38
60949;BMP280;46729;43.010;24.320;2022-07-23T01:32:40;97260.09;;;18.49
60949;BMP280;46729;43.010;24.320;2022-07-23T01:35:07;97255.69;;;18.43
60949;BMP280;46729;43.010;24.320;2022-07-23T01:37:33;97259.38;;;18.15
60949;BMP280;46729;43.010;24.320;2022-07-23T01:39:58;97256.72;;;18.04
60949;BMP280;46729;43.010;24.320;2022-07-23T01:42:24;97258.22;;;18.11
60949;BMP280;46729;43.010;24.320;2022-07-23T01:44:50;97256.00;;;18.08
60949;BMP280;46729;43.010;24.320;2022-07-23T01:47:16;97251.25;;;18.21
60949;BMP280;46729;43.010;24.320;2022-07-23T01:49:42;97253.41;;;17.97
60949;BMP280;46729;43.010;24.320;2022-07-23T01:52:08;97251.06;;;17.78
60949;BMP280;46729;43.010;24.320;2022-07-23T01:54:37;97258.38;;;17.71
60949;BMP280;46729;43.010;24.320;2022-07-23T01:57:04;97252.78;;;17.84
60949;BMP280;46729;43.010;24.320;2022-07-23T01:59:30;97254.44;;;17.96
60949;BMP280;46729;43.010;24.320;2022-07-23T02:01:55;97252.88;;;18.22
60949;BMP280;46729;43.010;24.320;2022-07-23T02:04:22;97254.75;;;18.11
60949;BMP280;46729;43.010;24.320;2022-07-23T02:06:49;97247.34;;;18.12
60949;BMP280;46729;43.010;24.320;2022-07-23T02:09:15;97253.94;;;18.10
60949;BMP280;46729;43.010;24.320;2022-07-23T02:11:40;97256.25;;;18.07
60949;BMP280;46729;43.010;24.320;2022-07-23T02:14:06;97253.13;;;17.98
60949;BMP280;46729;43.010;24.320;2022-07-23T02:16:32;97256.75;;;17.70
60949;BMP280;46729;43.010;24.320;2022-07-23T02:18:58;97262.16;;;17.64
60949;BMP280;46729;43.010;24.320;2022-07-23T02:21:24;97264.13;;;17.79
60949;BMP280;46729;43.010;24.320;2022-07-23T02:23:49;97266.69;;;17.97
60949;BMP280;46729;43.010;24.320;2022-07-23T02:26:15;97262.50;;;17.90
60949;BMP280;46729;43.010;24.320;2022-07-23T02:28:41;97256.16;;;17.68
60949;BMP280;46729;43.010;24.320;2022-07-23T02:31:06;97267.81;;;17.56
60949;BMP280;46729;43.010;24.320;2022-07-23T02:33:33;97259.28;;;17.54
60949;BMP280;46729;43.010;24.320;2022-07-23T02:35:59;97265.03;;;17.73
60949;BMP280;46729;43.010;24.320;2022-07-23T02:38:24;97262.50;;;17.90
60949;BMP280;46729;43.010;24.320;2022-07-23T02:40:50;97261.22;;;17.81
60949;BMP280;46729;43.010;24.320;2022-07-23T02:43:16;97260.88;;;17.66
60949;BMP280;46729;43.010;24.320;2022-07-23T02:45:42;97265.28;;;17.50
60949;BMP280;46729;43.010;24.320;2022-07-23T02:48:07;97260.56;;;17.63
60949;BMP280;46729;43.010;24.320;2022-07-23T02:50:33;97270.81;;;17.48
60949;BMP280;46729;43.010;24.320;2022-07-23T02:52:59;97269.44;;;17.57
60949;BMP280;46729;43.010;24.320;2022-07-23T02:55:24;97274.41;;;17.65
60949;BMP280;46729;43.010;24.320;2022-07-23T02:57:50;97280.78;;;17.53
60949;BMP280;46729;43.010;24.320;2022-07-23T03:00:16;97285.16;;;17.58
60949;BMP280;46729;43.010;24.320;2022-07-23T03:02:41;97286.06;;;17.75
60949;BMP280;46729;43.010;24.320;2022-07-23T03:05:07;97290.72;;;17.68
60949;BMP280;46729;43.010;24.320;2022-07-23T03:07:33;97289.88;;;17.56
60949;BMP280;46729;43.010;24.320;2022-07-23T03:09:59;97298.00;;;17.61
60949;BMP280;46729;43.010;24.320;2022-07-23T03:12:24;97292.19;;;17.64
60949;BMP280;46729;43.010;24.320;2022-07-23T03:14:50;97285.53;;;17.62
60949;BMP280;46729;43.010;24.320;2022-07-23T03:17:17;97291.16;;;17.65
60949;BMP280;46729;43.010;24.320;2022-07-23T03:19:42;97289.44;;;17.59
60949;BMP280;46729;43.010;24.320;2022-07-23T03:22:08;97294.28;;;17.73
60949;BMP280;46729;43.010;24.320;2022-07-23T03:24:34;97296.03;;;17.79
60949;BMP280;46729;43.010;24.320;2022-07-23T03:27:22;97299.28;;;17.70
60949;BMP280;46729;43.010;24.320;2022-07-23T03:29:49;97299.50;;;17.80
60949;BMP280;46729;43.010;24.320;2022-07-23T03:32:15;97297.88;;;17.79
60949;BMP280;46729;43.010;24.320;2022-07-23T03:34:40;97303.19;;;17.79
60949;BMP280;46729;43.010;24.320;2022-07-23T03:37:06;97308.16;;;17.98
60949;BMP280;46729;43.010;24.320;2022-07-23T03:39:32;97304.09;;;18.18
60949;BMP280;46729;43.010;24.320;2022-07-23T03:41:57;97311.53;;;18.05
60949;BMP280;46729;43.010;24.320;2022-07-23T03:44:23;97299.88;;;17.94
60949;BMP280;46729;43.010;24.320;2022-07-23T03:46:48;97310.03;;;17.86
60949;BMP280;46729;43.010;24.320;2022-07-23T03:49:14;97304.13;;;18.07
60949;BMP280;46729;43.010;24.320;2022-07-23T03:51:40;97300.63;;;18.29
60949;BMP280;46729;43.010;24.320;2022-07-23T03:54:05;97296.56;;;18.37
60949;BMP280;46729;43.010;24.320;2022-07-23T03:56:31;97290.34;;;18.32
60949;BMP280;46729;43.010;24.320;2022-07-23T03:58:57;97290.88;;;18.45
60949;BMP280;46729;43.010;24.320;2022-07-23T04:01:22;97302.28;;;18.57
60949;BMP280;46729;43.010;24.320;2022-07-23T04:03:48;97304.91;;;18.79
60949;BMP280;46729;43.010;24.320;2022-07-23T04:06:13;97304.91;;;18.79
60949;BMP280;46729;43.010;24.320;2022-07-23T04:08:39;97298.72;;;18.90
60949;BMP280;46729;43.010;24.320;2022-07-23T04:11:05;97296.63;;;18.92
60949;BMP280;46729;43.010;24.320;2022-07-23T04:13:30;97307.94;;;18.99
60949;BMP280;46729;43.010;24.320;2022-07-23T04:15:58;97301.22;;;18.96
60949;BMP280;46729;43.010;24.320;2022-07-23T04:18:23;97304.50;;;19.14
60949;BMP280;46729;43.010;24.320;2022-07-23T04:20:52;97297.75;;;19.39
60949;BMP280;46729;43.010;24.320;2022-07-23T04:23:18;97298.91;;;19.59
60949;BMP280;46729;43.010;24.320;2022-07-23T04:25:43;97297.34;;;19.79
60949;BMP280;46729;43.010;24.320;2022-07-23T04:28:09;97292.75;;;19.91
60949;BMP280;46729;43.010;24.320;2022-07-23T04:30:34;97308.09;;;20.00
60949;BMP280;46729;43.010;24.320;2022-07-23T04:33:00;97295.28;;;20.18
60949;BMP280;46729;43.010;24.320;2022-07-23T04:35:26;97298.50;;;20.36
60949;BMP280;46729;43.010;24.320;2022-07-23T04:37:52;97302.41;;;20.50
60949;BMP280;46729;43.010;24.320;2022-07-23T04:40:17;97303.09;;;20.61
60949;BMP280;46729;43.010;24.320;2022-07-23T04:42:43;97304.81;;;20.72
60949;BMP280;46729;43.010;24.320;2022-07-23T04:45:09;97301.72;;;20.80
60949;BMP280;46729;43.010;24.320;2022-07-23T04:47:35;97302.25;;;20.82
60949;BMP280;46729;43.010;24.320;2022-07-23T04:50:00;97304.16;;;20.81
60949;BMP280;46729;43.010;24.320;2022-07-23T04:52:26;97307.78;;;20.97
60949;BMP280;46729;43.010;24.320;2022-07-23T04:54:51;97304.44;;;21.11
60949;BMP280;46729;43.010;24.320;2022-07-23T04:57:17;97309.16;;;21.25
60949;BMP280;46729;43.010;24.320;2022-07-23T04:59:43;97304.97;;;21.34
60949;BMP280;46729;43.010;24.320;2022-07-23T05:02:08;97313.38;;;21.42
60949;BMP280;46729;43.010;24.320;2022-07-23T05:04:34;97306.78;;;21.54
60949;BMP280;46729;43.010;24.320;2022-07-23T05:06:59;97307.44;;;21.71
60949;BMP280;46729;43.010;24.320;2022-07-23T05:09:25;97306.22;;;21.83
60949;BMP280;46729;43.010;24.320;2022-07-23T05:11:51;97309.03;;;21.97
60949;BMP280;46729;43.010;24.320;2022-07-23T05:14:16;97306.16;;;22.09
60949;BMP280;46729;43.010;24.320;2022-07-23T05:16:42;97300.88;;;22.23
60949;BMP280;46729;43.010;24.320;2022-07-23T05:19:08;97301.22;;;22.32
60949;BMP280;46729;43.010;24.320;2022-07-23T05:21:33;97296.72;;;22.42
60949;BMP280;46729;43.010;24.320;2022-07-23T05:23:59;97298.38;;;22.52
60949;BMP280;46729;43.010;24.320;2022-07-23T05:26:25;97290.69;;;22.61
60949;BMP280;46729;43.010;24.320;2022-07-23T05:28:51;97293.13;;;22.72
60949;BMP280;46729;43.010;24.320;2022-07-23T05:31:17;97300.16;;;22.88
60949;BMP280;46729;43.010;24.320;2022-07-23T05:33:42;97293.22;;;23.01
60949;BMP280;46729;43.010;24.320;2022-07-23T05:36:08;97292.16;;;23.07
60949;BMP280;46729;43.010;24.320;2022-07-23T05:38:35;97302.38;;;23.10
60949;BMP280;46729;43.010;24.320;2022-07-23T05:41:01;97304.53;;;23.18
60949;BMP280;46729;43.010;24.320;2022-07-23T05:43:27;97305.06;;;23.25
60949;BMP280;46729;43.010;24.320;2022-07-23T05:45:53;97298.13;;;23.33
60949;BMP280;46729;43.010;24.320;2022-07-23T05:48:19;97302.19;;;23.46
60949;BMP280;46729;43.010;24.320;2022-07-23T05:50:46;97309.19;;;23.56
60949;BMP280;46729;43.010;24.320;2022-07-23T05:53:12;97298.97;;;23.68
60949;BMP280;46729;43.010;24.320;2022-07-23T05:55:38;97298.44;;;23.76
60949;BMP280;46729;43.010;24.320;2022-07-23T05:58:04;97308.66;;;23.88
60949;BMP280;46729;43.010;24.320;2022-07-23T06:00:30;97309.44;;;23.94
60949;BMP280;46729;43.010;24.320;2022-07-23T06:02:55;97307.88;;;24.07
60949;BMP280;46729;43.010;24.320;2022-07-23T06:05:21;97305.66;;;24.19
60949;BMP280;46729;43.010;24.320;2022-07-23T06:07:47;97306.97;;;24.36
60949;BMP280;46729;43.010;24.320;2022-07-23T06:10:13;97306.16;;;24.50
60949;BMP280;46729;43.010;24.320;2022-07-23T06:12:39;97308.00;;;24.60
60949;BMP280;46729;43.010;24.320;2022-07-23T06:15:05;97306.66;;;24.62
60949;BMP280;46729;43.010;24.320;2022-07-23T06:17:31;97310.13;;;24.72
60949;BMP280;46729;43.010;24.320;2022-07-23T06:19:57;97300.09;;;24.87
60949;BMP280;46729;43.010;24.320;2022-07-23T06:22:22;97312.69;;;25.02
60949;BMP280;46729;43.010;24.320;2022-07-23T06:24:50;97294.31;;;25.13
60949;BMP280;46729;43.010;24.320;2022-07-23T06:27:19;97290.16;;;25.40
60949;BMP280;46729;43.010;24.320;2022-07-23T06:29:44;97292.50;;;25.51
60949;BMP280;46729;43.010;24.320;2022-07-23T06:32:10;97293.47;;;25.65
60949;BMP280;46729;43.010;24.320;2022-07-23T06:34:37;97287.19;;;25.79
60949;BMP280;46729;43.010;24.320;2022-07-23T06:37:03;97289.75;;;25.94
60949;BMP280;46729;43.010;24.320;2022-07-23T06:39:30;97284.00;;;26.05
60949;BMP280;46729;43.010;24.320;2022-07-23T06:41:57;97282.06;;;26.10
60949;BMP280;46729;43.010;24.320;2022-07-23T06:44:24;97279.28;;;26.20
60949;BMP280;46729;43.010;24.320;2022-07-23T06:46:49;97277.22;;;26.35
60949;BMP280;46729;43.010;24.320;2022-07-23T06:49:16;97273.59;;;26.49
60949;BMP280;46729;43.010;24.320;2022-07-23T06:51:42;97273.44;;;26.64
60949;BMP280;46729;43.010;24.320;2022-07-23T06:54:09;97277.00;;;26.77
60949;BMP280;46729;43.010;24.320;2022-07-23T06:56:35;97260.06;;;26.95
60949;BMP280;46729;43.010;24.320;2022-07-23T06:59:02;97264.19;;;27.11
60949;BMP280;46729;43.010;24.320;2022-07-23T07:01:27;97261.88;;;27.22
60949;BMP280;46729;43.010;24.320;2022-07-23T07:03:54;97256.84;;;27.34
60949;BMP280;46729;43.010;24.320;2022-07-23T07:06:22;97257.78;;;27.43
60949;BMP280;46729;43.010;24.320;2022-07-23T07:08:49;97254.06;;;27.57
60949;BMP280;46729;43.010;24.320;2022-07-23T07:11:16;97260.25;;;27.75
60949;BMP280;46729;43.010;24.320;2022-07-23T07:13:41;97264.59;;;27.90
60949;BMP280;46729;43.010;24.320;2022-07-23T07:16:08;97257.34;;;28.16
60949;BMP280;46729;43.010;24.320;2022-07-23T07:18:34;97255.97;;;28.19
60949;BMP280;46729;43.010;24.320;2022-07-23T07:21:00;97250.56;;;28.19
60949;BMP280;46729;43.010;24.320;2022-07-23T07:23:27;97254.72;;;28.30
60949;BMP280;46729;43.010;24.320;2022-07-23T07:25:54;97260.44;;;28.41
60949;BMP280;46729;43.010;24.320;2022-07-23T07:28:21;97255.34;;;28.53
60949;BMP280;46729;43.010;24.320;2022-07-23T07:30:48;97252.94;;;28.65
60949;BMP280;46729;43.010;24.320;2022-07-23T07:33:13;97248.91;;;28.75
60949;BMP280;46729;43.010;24.320;2022-07-23T07:35:39;97239.53;;;28.86
60949;BMP280;46729;43.010;24.320;2022-07-23T07:38:05;97250.22;;;28.91
60949;BMP280;46729;43.010;24.320;2022-07-23T07:40:32;97239.31;;;28.96
60949;BMP280;46729;43.010;24.320;2022-07-23T07:42:59;97249.72;;;29.15
60949;BMP280;46729;43.010;24.320;2022-07-23T07:45:26;97245.16;;;29.37
60949;BMP280;46729;43.010;24.320;2022-07-23T07:47:53;97242.88;;;29.52
60949;BMP280;46729;43.010;24.320;2022-07-23T07:50:21;97229.59;;;29.64
60949;BMP280;46729;43.010;24.320;2022-07-23T08:10:25;97223.72;;;30.81
60949;BMP280;46729;43.010;24.320;2022-07-23T08:12:54;97221.69;;;30.86
60949;BMP280;46729;43.010;24.320;2022-07-23T08:15:24;97219.97;;;30.99
60949;BMP280;46729;43.010;24.320;2022-07-23T08:17:52;97211.53;;;31.08
60949;BMP280;46729;43.010;24.320;2022-07-23T08:20:21;97218.06;;;31.07
60949;BMP280;46729;43.010;24.320;2022-07-23T08:22:55;97208.50;;;31.18
60949;BMP280;46729;43.010;24.320;2022-07-23T08:25:29;97215.72;;;31.14
60949;BMP280;46729;43.010;24.320;2022-07-23T08:27:58;97209.00;;;31.37
60949;BMP280;46729;43.010;24.320;2022-07-23T08:30:25;97197.06;;;31.54
60949;BMP280;46729;43.010;24.320;2022-07-23T08:33:05;97209.53;;;31.55
60949;BMP280;46729;43.010;24.320;2022-07-23T08:35:37;97203.09;;;31.68
60949;BMP280;46729;43.010;24.320;2022-07-23T08:38:06;97199.56;;;31.84
60949;BMP280;46729;43.010;24.320;2022-07-23T08:40:35;97201.31;;;31.88
60949;BMP280;46729;43.010;24.320;2022-07-23T08:43:16;97201.03;;;31.98
60949;BMP280;46729;43.010;24.320;2022-07-23T08:45:44;97209.00;;;32.03
60949;BMP280;46729;43.010;24.320;2022-07-23T08:48:19;97205.22;;;32.32
60949;BMP280;46729;43.010;24.320;2022-07-23T08:50:49;97210.81;;;32.44
60949;BMP280;46729;43.010;24.320;2022-07-23T08:53:17;97206.16;;;32.36
60949;BMP280;46729;43.010;24.320;2022-07-23T08:55:49;97204.88;;;32.42
60949;BMP280;46729;43.010;24.320;2022-07-23T08:58:17;97211.47;;;32.33
60949;BMP280;46729;43.010;24.320;2022-07-23T09:00:45;97204.88;;;32.42
60949;BMP280;46729;43.010;24.320;2022-07-23T09:03:19;97205.63;;;32.59
60949;BMP280;46729;43.010;24.320;2022-07-23T09:05:49;97205.91;;;32.66
60949;BMP280;46729;43.010;24.320;2022-07-23T09:08:19;97203.25;;;32.57
60949;BMP280;46729;43.010;24.320;2022-07-23T09:11:01;97208.81;;;32.61
60949;BMP280;46729;43.010;24.320;2022-07-23T09:13:47;97197.34;;;32.84
60949;BMP280;46729;43.010;24.320;2022-07-23T09:16:19;97203.34;;;32.97
60949;BMP280;46729;43.010;24.320;2022-07-23T09:18:56;97195.88;;;32.86
60949;BMP280;46729;43.010;24.320;2022-07-23T09:21:33;97211.47;;;33.06
60949;BMP280;46729;43.010;24.320;2022-07-23T09:24:08;97194.41;;;33.17
60949;BMP280;46729;43.010;24.320;2022-07-23T09:26:45;97190.34;;;33.23
60949;BMP280;46729;43.010;24.320;2022-07-23T09:29:23;97194.41;;;33.17
60949;BMP280;46729;43.010;24.320;2022-07-23T09:32:02;97199.72;;;33.13
60949;BMP280;46729;43.010;24.320;2022-07-23T09:34:36;97191.69;;;33.17
60949;BMP280;46729;43.010;24.320;2022-07-23T09:37:17;97201.13;;;33.39
60949;BMP280;46729;43.010;24.320;2022-07-23T09:39:45;97196.75;;;33.47
60949;BMP280;46729;43.010;24.320;2022-07-23T09:42:25;97200.75;;;33.49
60949;BMP280;46729;43.010;24.320;2022-07-23T09:44:53;97186.59;;;33.55
60949;BMP280;46729;43.010;24.320;2022-07-23T09:47:22;97184.66;;;33.56
60949;BMP280;46729;43.010;24.320;2022-07-23T09:50:09;97180.00;;;33.56
60949;BMP280;46729;43.010;24.320;2022-07-23T09:52:48;97185.31;;;33.73
60949;BMP280;46729;43.010;24.320;2022-07-23T09:55:16;97184.22;;;33.86
60949;BMP280;46729;43.010;24.320;2022-07-23T09:57:44;97181.44;;;33.94
60949;BMP280;46729;43.010;24.320;2022-07-23T10:00:31;97180.09;;;34.00
60949;BMP280;46729;43.010;24.320;2022-07-23T10:02:59;97178.72;;;33.94
60949;BMP280;46729;43.010;24.320;2022-07-23T10:05:26;97177.63;;;34.07
60949;BMP280;46729;43.010;24.320;2022-07-23T10:07:54;97174.00;;;34.26
60949;BMP280;46729;43.010;24.320;2022-07-23T10:10:22;97175.84;;;34.34
60949;BMP280;46729;43.010;24.320;2022-07-23T10:12:54;97166.56;;;34.35
60949;BMP280;46729;43.010;24.320;2022-07-23T10:15:36;97168.63;;;34.49
60949;BMP280;46729;43.010;24.320;2022-07-23T10:18:03;97164.53;;;34.55
60949;BMP280;46729;43.010;24.320;2022-07-23T10:20:30;97165.78;;;34.58
60949;BMP280;46729;43.010;24.320;2022-07-23T10:25:51;97169.22;;;34.66
60949;BMP280;46729;43.010;24.320;2022-07-23T10:31:49;97164.53;;;34.44
60949;BMP280;46729;43.010;24.320;2022-07-23T10:37:56;97156.78;;;34.46
60949;BMP280;46729;43.010;24.320;2022-07-23T10:40:23;97153.16;;;34.53
60949;BMP280;46729;43.010;24.320;2022-07-23T10:43:00;97151.09;;;34.62
60949;BMP280;46729;43.010;24.320;2022-07-23T10:48:31;97144.94;;;34.77
60949;BMP280;46729;43.010;24.320;2022-07-23T10:51:16;97141.91;;;34.66
60949;BMP280;46729;43.010;24.320;2022-07-23T10:53:58;97142.47;;;34.48
60949;BMP280;46729;43.010;24.320;2022-07-23T10:59:25;97132.72;;;34.83
60949;BMP280;46729;43.010;24.320;2022-07-23T11:01:52;97130.06;;;34.74
60949;BMP280;46729;43.010;24.320;2022-07-23T11:04:19;97128.72;;;34.80
60949;BMP280;46729;43.010;24.320;2022-07-23T11:09:31;97117.59;;;35.23
60949;BMP280;46729;43.010;24.320;2022-07-23T11:20:26;97112.44;;;34.72
60949;BMP280;46729;43.010;24.320;2022-07-23T11:22:56;97111.97;;;34.70
60949;BMP280;46729;43.010;24.320;2022-07-23T11:27:52;97094.16;;;35.11
60949;BMP280;46729;43.010;24.320;2022-07-23T11:35:39;97091.78;;;35.48
60949;BMP280;46729;43.010;24.320;2022-07-23T11:40:38;97099.88;;;35.44
60949;BMP280;46729;43.010;24.320;2022-07-23T11:43:07;97093.56;;;35.56
60949;BMP280;46729;43.010;24.320;2022-07-23T11:45:38;97094.19;;;35.49
60949;BMP280;46729;43.010;24.320;2022-07-23T11:48:08;97086.28;;;35.60
60949;BMP280;46729;43.010;24.320;2022-07-23T11:50:36;97090.03;;;35.82
60949;BMP280;46729;43.010;24.320;2022-07-23T11:53:03;97088.28;;;35.74
60949;BMP280;46729;43.010;24.320;2022-07-23T11:55:30;97088.50;;;35.69
60949;BMP280;46729;43.010;24.320;2022-07-23T11:57:57;97092.63;;;35.63
60949;BMP280;46729;43.010;24.320;2022-07-23T12:00:26;97087.88;;;35.61
60949;BMP280;46729;43.010;24.320;2022-07-23T12:02:57;97088.47;;;35.96
60949;BMP280;46729;43.010;24.320;2022-07-23T12:05:31;97085.47;;;36.01
60949;BMP280;46729;43.010;24.320;2022-07-23T12:07:58;97090.84;;;35.98
60949;BMP280;46729;43.010;24.320;2022-07-23T12:10:30;97091.66;;;35.98
60949;BMP280;46729;43.010;24.320;2022-07-23T12:13:04;97085.03;;;36.14
60949;BMP280;46729;43.010;24.320;2022-07-23T12:15:37;97079.50;;;36.11
60949;BMP280;46729;43.010;24.320;2022-07-23T12:18:08;97078.09;;;36.32
60949;BMP280;46729;43.010;24.320;2022-07-23T12:20:43;97074.75;;;36.23
60949;BMP280;46729;43.010;24.320;2022-07-23T12:23:12;97059.53;;;36.40
60949;BMP280;46729;43.010;24.320;2022-07-23T12:25:42;97072.69;;;36.50
60949;BMP280;46729;43.010;24.320;2022-07-23T12:30:52;97060.16;;;36.64
60949;BMP280;46729;43.010;24.320;2022-07-23T12:33:28;97060.88;;;36.61
60949;BMP280;46729;43.010;24.320;2022-07-23T12:35:58;97052.16;;;36.26
60949;BMP280;46729;43.010;24.320;2022-07-23T12:38:27;97056.13;;;36.13
60949;BMP280;46729;43.010;24.320;2022-07-23T12:40:59;97057.66;;;36.14
60949;BMP280;46729;43.010;24.320;2022-07-23T12:43:32;97048.78;;;36.47
60949;BMP280;46729;43.010;24.320;2022-07-23T12:46:13;97044.53;;;36.65
60949;BMP280;46729;43.010;24.320;2022-07-23T12:48:52;97045.63;;;36.79
60949;BMP280;46729;43.010;24.320;2022-07-23T12:51:26;97046.47;;;36.49
60949;BMP280;46729;43.010;24.320;2022-07-23T12:54:04;97038.69;;;36.51
60949;BMP280;46729;43.010;24.320;2022-07-23T12:56:34;97044.84;;;36.78
60949;BMP280;46729;43.010;24.320;2022-07-23T12:59:09;97031.28;;;36.85
60949;BMP280;46729;43.010;24.320;2022-07-23T13:01:53;97042.03;;;36.94
60949;BMP280;46729;43.010;24.320;2022-07-23T13:04:21;97036.34;;;37.02
60949;BMP280;46729;43.010;24.320;2022-07-23T13:06:53;97035.00;;;37.11
60949;BMP280;46729;43.010;24.320;2022-07-23T13:09:24;97033.28;;;37.03
60949;BMP280;46729;43.010;24.320;2022-07-23T13:11:51;97025.75;;;37.00
60949;BMP280;46729;43.010;24.320;2022-07-23T13:14:19;97033.31;;;36.88
60949;BMP280;46729;43.010;24.320;2022-07-23T13:16:48;97027.19;;;36.95
60949;BMP280;46729;43.010;24.320;2022-07-23T13:19:15;97035.47;;;36.79
60949;BMP280;46729;43.010;24.320;2022-07-23T13:21:42;97031.78;;;36.57
60949;BMP280;46729;43.010;24.320;2022-07-23T13:24:12;97028.97;;;36.69
60949;BMP280;46729;43.010;24.320;2022-07-23T13:26:40;97018.31;;;36.82
60949;BMP280;46729;43.010;24.320;2022-07-23T13:29:07;97018.84;;;36.88
60949;BMP280;46729;43.010;24.320;2022-07-23T13:31:35;97011.19;;;36.97
60949;BMP280;46729;43.010;24.320;2022-07-23T13:34:03;97012.69;;;36.94
60949;BMP280;46729;43.010;24.320;2022-07-23T13:36:30;97015.59;;;37.01
60949;BMP280;46729;43.010;24.320;2022-07-23T13:38:57;97008.50;;;37.00
60949;BMP280;46729;43.010;24.320;2022-07-23T13:41:24;97009.38;;;36.85
60949;BMP280;46729;43.010;24.320;2022-07-23T13:43:51;97006.25;;;36.68
60949;BMP280;46729;43.010;24.320;2022-07-23T13:46:18;97006.78;;;36.58
60949;BMP280;46729;43.010;24.320;2022-07-23T13:48:45;97006.47;;;36.60
60949;BMP280;46729;43.010;24.320;2022-07-23T13:51:12;97002.75;;;36.53
60949;BMP280;46729;43.010;24.320;2022-07-23T13:53:39;97004.75;;;36.37
60949;BMP280;46729;43.010;24.320;2022-07-23T13:56:06;96998.91;;;36.39
60949;BMP280;46729;43.010;24.320;2022-07-23T13:58:33;97006.69;;;36.37
60949;BMP280;46729;43.010;24.320;2022-07-23T14:01:00;97003.19;;;36.21
60949;BMP280;46729;43.010;24.320;2022-07-23T14:03:26;97003.41;;;36.31
60949;BMP280;46729;43.010;24.320;2022-07-23T14:05:53;96999.88;;;36.31
60949;BMP280;46729;43.010;24.320;2022-07-23T14:08:19;96999.81;;;36.27
60949;BMP280;46729;43.010;24.320;2022-07-23T14:10:46;97007.06;;;36.20
60949;BMP280;46729;43.010;24.320;2022-07-23T14:13:13;96998.84;;;36.20
60949;BMP280;46729;43.010;24.320;2022-07-23T14:15:40;96997.25;;;36.19
60949;BMP280;46729;43.010;24.320;2022-07-23T14:18:07;96995.31;;;36.20
60949;BMP280;46729;43.010;24.320;2022-07-23T14:20:34;97001.31;;;36.10
60949;BMP280;46729;43.010;24.320;2022-07-23T14:23:01;96989.13;;;36.07
60949;BMP280;46729;43.010;24.320;2022-07-23T14:25:29;96988.00;;;35.93
60949;BMP280;46729;43.010;24.320;2022-07-23T14:27:56;96987.19;;;35.93
60949;BMP280;46729;43.010;24.320;2022-07-23T14:30:22;96985.50;;;35.88
60949;BMP280;46729;43.010;24.320;2022-07-23T14:32:53;96987.72;;;35.83
60949;BMP280;46729;43.010;24.320;2022-07-23T14:35:20;96994.16;;;35.75
60949;BMP280;46729;43.010;24.320;2022-07-23T14:37:48;96987.81;;;35.71
60949;BMP280;46729;43.010;24.320;2022-07-23T14:40:15;96991.22;;;35.68
60949;BMP280;46729;43.010;24.320;2022-07-23T14:42:42;96982.47;;;35.63
60949;BMP280;46729;43.010;24.320;2022-07-23T14:45:09;96980.03;;;35.58
60949;BMP280;46729;43.010;24.320;2022-07-23T14:47:35;96987.75;;;35.56
60949;BMP280;46729;43.010;24.320;2022-07-23T14:50:03;96982.91;;;35.50
60949;BMP280;46729;43.010;24.320;2022-07-23T14:52:30;96974.97;;;35.45
60949;BMP280;46729;43.010;24.320;2022-07-23T14:54:57;96976.38;;;35.39
60949;BMP280;46729;43.010;24.320;2022-07-23T14:57:24;96977.88;;;35.37